Time;durP1;ratioP1;P1;durP2;ratioP2;P2;SDS_P1;SDS_P2;PMS_P1;PMS_P2;Temp;Humidity;BMP_temperature;BMP_pressure;BME280_temperature;BME280_humidity;BME280_pressure;Samples;Min_cycle;Max_cycle;Signal;HPM_P1;HPM_P2
2022/02/10 00:05:11;;;;;;;22.17;6.00;;;2.10;99.90;;;;;;1804499;77;21157;-75
2022/02/10 00:13:28;;;;;;;12.18;6.12;;;2.00;99.90;;;;;;1855850;76;21127;-75
2022/02/10 00:17:34;;;;;;;9.90;6.15;;;2.00;99.90;;;;;;1853120;77;21082;-75
2022/02/10 00:36:23;;;;;;;8.25;5.35;;;1.80;99.90;;;;;;1853070;77;21145;-74
2022/02/10 00:38:56;;;;;;;6.20;4.67;;;1.80;99.90;;;;;;1852303;77;21148;-75
2022/02/10 00:41:15;;;;;;;11.25;5.60;;;1.70;99.90;;;;;;1851169;77;21082;-75
2022/02/10 00:43:42;;;;;;;8.63;5.35;;;1.70;99.90;;;;;;1853200;77;21112;-74
2022/02/10 00:46:10;;;;;;;10.68;6.08;;;1.70;99.90;;;;;;1853158;77;21128;-74
2022/02/10 00:48:37;;;;;;;9.88;6.15;;;1.70;99.90;;;;;;1853084;77;21148;-74
2022/02/10 00:51:06;;;;;;;9.58;6.40;;;1.60;99.90;;;;;;1853302;77;21113;-74
2022/02/10 00:53:38;;;;;;;9.33;5.95;;;1.60;99.90;;;;;;1853331;77;21152;-75
2022/02/10 00:56:03;;;;;;;6.75;4.90;;;1.60;99.90;;;;;;1852712;77;21156;-74
2022/02/10 00:58:32;;;;;;;6.90;5.28;;;1.60;99.90;;;;;;1853366;77;21090;-75
2022/02/10 01:24:26;;;;;;;12.58;5.33;;;1.50;99.90;;;;;;1853237;77;21055;-75
2022/02/10 01:30:09;;;;;;;13.00;6.33;;;1.40;99.90;;;;;;1792344;78;21106;-74
2022/02/10 01:32:36;;;;;;;9.45;6.70;;;1.40;99.90;;;;;;1851288;77;21125;-75
2022/02/10 01:35:06;;;;;;;14.00;6.67;;;1.40;99.90;;;;;;1853371;77;21066;-75
2022/02/10 01:37:35;;;;;;;9.33;5.63;;;1.40;99.90;;;;;;1853247;77;21090;-75
2022/02/10 01:40:10;;;;;;;8.28;5.75;;;1.40;99.90;;;;;;1853283;77;21098;-75
2022/02/10 02:04:24;;;;;;;13.40;6.50;;;1.20;99.90;;;;;;1852862;77;21173;-75
2022/02/10 02:06:52;;;;;;;7.53;6.00;;;1.10;99.90;;;;;;1853443;77;21062;-75
2022/02/10 02:09:21;;;;;;;14.55;6.67;;;1.20;99.90;;;;;;1829891;77;21086;-75
2022/02/10 02:11:52;;;;;;;16.23;6.20;;;1.00;99.90;;;;;;1853175;77;21133;-75
2022/02/10 02:14:21;;;;;;;11.35;6.25;;;1.10;99.90;;;;;;1853273;77;21046;-75
2022/02/10 02:16:56;;;;;;;8.35;5.47;;;1.10;99.90;;;;;;1853282;77;21079;-75
2022/02/10 02:19:23;;;;;;;10.78;5.95;;;1.00;99.90;;;;;;1853294;77;21047;-76
2022/02/10 02:21:51;;;;;;;13.05;6.42;;;1.10;99.90;;;;;;1853256;77;21062;-75
2022/02/10 02:24:22;;;;;;;7.00;5.42;;;1.10;99.90;;;;;;1853208;77;21198;-75
2022/02/10 02:26:51;;;;;;;9.98;4.95;;;1.10;99.90;;;;;;1853226;77;21132;-75
2022/02/10 02:29:28;;;;;;;19.10;6.17;;;1.10;99.90;;;;;;1853280;77;21070;-74
2022/02/10 02:31:54;;;;;;;5.97;4.62;;;1.00;99.90;;;;;;1851423;77;21478;-75
2022/02/10 02:37:22;;;;;;;6.87;5.33;;;0.90;99.90;;;;;;1853207;77;21226;-75
2022/02/10 03:04:47;;;;;;;8.93;5.33;;;0.80;99.90;;;;;;1854991;77;21148;-75
2022/02/10 03:07:08;;;;;;;11.73;6.08;;;0.80;99.90;;;;;;1851420;76;21136;-75
2022/02/10 03:09:28;;;;;;;12.23;5.80;;;0.70;99.90;;;;;;1850187;77;21507;-75
2022/02/10 03:11:58;;;;;;;14.85;5.70;;;0.70;99.90;;;;;;1853326;77;21055;-74
2022/02/10 03:14:31;;;;;;;11.30;5.93;;;0.70;99.90;;;;;;1853531;77;21136;-75
2022/02/10 03:17:22;;;;;;;9.28;5.83;;;0.60;99.90;;;;;;1852180;77;21461;-74
2022/02/10 03:19:42;;;;;;;10.63;6.10;;;0.70;99.90;;;;;;1848758;77;21172;-75
2022/02/10 04:01:13;;;;;;;13.25;6.67;;;0.40;99.90;;;;;;1808238;77;21621;-74
2022/02/10 04:06:14;;;;;;;11.83;6.72;;;0.40;99.90;;;;;;1817552;77;21215;-74
2022/02/10 04:09:04;;;;;;;12.88;6.00;;;0.30;99.90;;;;;;1814134;77;21515;-74
2022/02/10 04:16:40;;;;;;;8.43;5.55;;;0.40;99.90;;;;;;1814753;77;21542;-75
2022/02/10 04:21:58;;;;;;;8.78;5.40;;;0.30;99.90;;;;;;1819129;77;21103;-76
2022/02/10 04:24:43;;;;;;;8.35;5.35;;;0.30;99.90;;;;;;1812647;77;21173;-76
2022/02/10 04:27:07;;;;;;;11.78;6.03;;;0.30;99.90;;;;;;1813706;78;21180;-76
2022/02/10 04:32:29;;;;;;;9.28;5.17;;;0.10;99.90;;;;;;1820064;77;21176;-75
2022/02/10 04:59:12;;;;;;;11.95;6.20;;;0.10;99.90;;;;;;1819462;77;21072;-76
2022/02/10 05:13:17;;;;;;;10.03;6.50;;;0.10;99.90;;;;;;1817866;77;21104;-74
2022/02/10 05:20:14;;;;;;;9.33;5.67;;;0.10;99.90;;;;;;1816969;78;21264;-74
2022/02/10 05:22:45;;;;;;;8.93;6.20;;;0.10;99.90;;;;;;1816077;77;21091;-74
2022/02/10 05:38:16;;;;;;;9.70;6.17;;;0.10;99.90;;;;;;1853613;76;21144;-77
2022/02/10 05:41:35;;;;;;;8.70;5.83;;;0.10;99.90;;;;;;1819323;78;21151;-76
2022/02/10 05:46:07;;;;;;;8.18;5.72;;;0.10;99.90;;;;;;1815970;78;21185;-76
2022/02/10 05:53:55;;;;;;;9.20;5.85;;;0.00;99.90;;;;;;1853210;77;21114;-75
2022/02/10 06:45:08;;;;;;;12.23;6.62;;;0.00;99.90;;;;;;1853760;77;21244;-74
2022/02/10 06:47:04;;;;;;;9.33;6.22;;;0.00;99.90;;;;;;1849528;77;21138;-74
2022/02/10 07:04:46;;;;;;;12.70;7.90;;;0.30;99.90;;;;;;1879976;76;21081;-81
2022/02/10 07:07:35;;;;;;;13.00;8.33;;;0.30;99.90;;;;;;1881537;74;21105;-80
2022/02/10 07:15:10;;;;;;;16.10;7.72;;;0.40;99.90;;;;;;1887269;76;21102;-82
2022/02/10 07:48:28;;;;;;;19.48;8.45;;;1.20;99.90;;;;;;1886849;76;21097;-83
2022/02/10 07:57:54;;;;;;;12.85;7.85;;;1.70;99.90;;;;;;1883551;76;21555;-84
2022/02/10 08:57:17;;;;;;;20.62;6.03;;;4.30;99.90;;;;;;1884469;75;21148;-82
2022/02/10 09:00:17;;;;;;;11.73;6.37;;;4.50;99.90;;;;;;1890330;75;21092;-82
2022/02/10 09:11:09;;;;;;;9.08;5.50;;;5.50;99.90;;;;;;1881404;75;21154;-82
2022/02/10 09:54:22;;;;;;;10.48;5.20;;;9.50;99.90;;;;;;1897737;75;21084;-83
2022/02/10 09:56:05;;;;;;;13.28;5.42;;;9.40;99.90;;;;;;1882339;75;21718;-82
2022/02/10 10:01:01;;;;;;;16.32;5.72;;;10.30;99.90;;;;;;1886946;75;21440;-83
2022/02/10 10:03:27;;;;;;;11.55;5.15;;;10.80;99.90;;;;;;1884876;75;21101;-83
2022/02/10 10:06:03;;;;;;;10.23;4.50;;;11.20;99.90;;;;;;1877904;74;21122;-82
2022/02/10 10:08:49;;;;;;;10.95;5.50;;;11.50;99.90;;;;;;1879806;74;21186;-83
2022/02/10 10:11:53;;;;;;;12.03;4.47;;;11.50;99.90;;;;;;1883505;75;21090;-83
2022/02/10 10:14:22;;;;;;;11.43;3.72;;;12.10;99.90;;;;;;1883942;75;21398;-82
2022/02/10 10:17:03;;;;;;;10.55;4.12;;;13.00;99.90;;;;;;1880595;75;21524;-81
2022/02/10 10:20:00;;;;;;;9.88;3.42;;;13.30;99.90;;;;;;1874811;76;21103;-83
2022/02/10 10:22:32;;;;;;;7.15;3.10;;;13.10;99.90;;;;;;1879502;75;21525;-82
2022/02/10 10:25:22;;;;;;;9.55;3.20;;;13.00;99.90;;;;;;1890493;74;21109;-83
2022/02/10 10:53:20;;;;;;;5.25;2.40;;;14.50;99.90;;;;;;1887663;75;21175;-83
2022/02/10 10:58:28;;;;;;;5.40;2.45;;;14.60;99.90;;;;;;1906312;74;21472;-80
2022/02/10 11:03:34;;;;;;;6.12;2.58;;;14.40;99.90;;;;;;1897826;75;21301;-80
2022/02/10 11:03:46;;;;;;;9.85;2.80;;;13.90;99.90;;;;;;1896703;75;21160;-81
2022/02/10 11:23:40;;;;;;;3.87;2.92;;;12.90;99.90;;;;;;1881540;75;21069;-82
2022/02/10 11:39:38;;;;;;;9.00;2.90;;;15.00;99.90;;;;;;1878774;75;21114;-84
2022/02/10 11:42:19;;;;;;;5.92;2.47;;;15.30;99.90;;;;;;1897513;75;21106;-84
2022/02/10 11:59:59;;;;;;;8.38;2.80;;;16.10;99.90;;;;;;1887794;75;21094;-84
2022/02/10 12:30:26;;;;;;;5.00;2.72;;;17.10;99.90;;;;;;1893291;75;21092;-83
2022/02/10 12:33:37;;;;;;;4.35;2.30;;;16.80;99.90;;;;;;1888382;74;21175;-83
2022/02/10 13:28:28;;;;;;;9.98;4.62;;;11.20;99.90;;;;;;1819271;76;21500;-81
2022/02/10 13:48:08;;;;;;;11.90;4.85;;;11.00;99.90;;;;;;1895610;75;21081;-81
2022/02/10 14:09:15;;;;;;;13.05;5.00;;;10.30;99.90;;;;;;1887666;75;21194;-82
2022/02/10 14:16:58;;;;;;;9.08;5.30;;;10.00;99.90;;;;;;1896180;74;21179;-82
2022/02/10 14:27:29;;;;;;;11.50;5.70;;;9.70;99.90;;;;;;1885409;75;21133;-83
2022/02/10 14:29:57;;;;;;;19.32;4.83;;;9.70;99.90;;;;;;1892607;75;21240;-82
2022/02/10 14:32:28;;;;;;;11.10;5.17;;;9.60;99.90;;;;;;1906327;74;21006;-82
2022/02/10 14:34:58;;;;;;;9.60;5.60;;;9.50;99.90;;;;;;1891541;74;21307;-83
2022/02/10 14:40:12;;;;;;;14.23;5.53;;;9.20;99.90;;;;;;1892956;75;21295;-82
2022/02/10 14:43:00;;;;;;;8.88;4.97;;;9.10;99.90;;;;;;1890082;73;21106;-82
2022/02/10 15:30:12;;;;;;;12.88;5.75;;;8.60;99.90;;;;;;1889038;75;21116;-82
2022/02/10 15:33:00;;;;;;;11.55;4.60;;;8.70;99.90;;;;;;1902800;72;21104;-82
2022/02/10 16:18:07;;;;;;;9.85;5.05;;;8.90;99.90;;;;;;1897737;75;21477;-81
2022/02/10 16:20:33;;;;;;;11.80;4.80;;;8.90;99.90;;;;;;1885360;74;21122;-79
2022/02/10 16:23:03;;;;;;;8.10;4.03;;;8.70;99.90;;;;;;1881231;76;21152;-83
2022/02/10 16:25:32;;;;;;;8.35;4.75;;;8.70;99.90;;;;;;1880545;75;21583;-82
2022/02/10 16:30:43;;;;;;;8.13;4.20;;;8.70;99.90;;;;;;1833091;75;21081;-84
2022/02/10 16:33:10;;;;;;;7.28;3.42;;;8.80;99.90;;;;;;1885521;75;21080;-84
2022/02/10 16:35:39;;;;;;;3.85;2.60;;;8.80;99.90;;;;;;1861796;75;21075;-84
2022/02/10 16:38:09;;;;;;;7.72;2.50;;;8.80;99.90;;;;;;1889967;75;21127;-84
2022/02/10 16:40:38;;;;;;;;;;;8.90;99.90;;;;;;1884809;74;21148;-81
2022/02/10 16:43:06;;;;;;;6.87;4.37;;;8.90;99.90;;;;;;1904924;74;20154;-84
2022/02/10 16:45:34;;;;;;;11.73;5.85;;;8.80;99.90;;;;;;1893846;75;21059;-82
2022/02/10 16:48:01;;;;;;;13.40;5.28;;;8.60;99.90;;;;;;1901167;75;21154;-80
2022/02/10 16:50:29;;;;;;;9.00;5.17;;;8.50;99.90;;;;;;1891068;75;21069;-79
2022/02/10 16:53:04;;;;;;;8.98;5.20;;;8.40;99.90;;;;;;1896156;75;21045;-84
2022/02/10 16:55:48;;;;;;;9.10;5.60;;;8.40;99.90;;;;;;1904615;75;21312;-83
2022/02/10 16:58:28;;;;;;;11.18;5.75;;;8.40;99.90;;;;;;1886903;74;21465;-83
2022/02/10 17:04:06;;;;;;;8.98;5.10;;;8.30;99.90;;;;;;1881746;75;21090;-83
2022/02/10 17:20:23;;;;;;;9.15;4.03;;;8.40;99.90;;;;;;1895553;75;21155;-82
2022/02/10 17:25:23;;;;;;;4.72;2.72;;;8.30;99.90;;;;;;1880903;75;21544;-82
2022/02/10 17:27:53;;;;;;;6.92;3.40;;;8.40;99.90;;;;;;1893553;74;21175;-82
2022/02/10 17:46:12;;;;;;;3.00;1.85;;;8.60;99.90;;;;;;1890159;74;21072;-81
2022/02/10 17:51:39;;;;;;;3.67;2.00;;;8.60;99.90;;;;;;1892361;74;21146;-84
2022/02/10 17:53:58;;;;;;;4.65;2.47;;;8.60;99.90;;;;;;1897822;74;21148;-88
2022/02/10 17:56:27;;;;;;;5.30;2.58;;;8.60;99.90;;;;;;1893028;75;21124;-81
2022/02/10 17:58:54;;;;;;;3.60;2.60;;;8.60;99.90;;;;;;1889817;75;21069;-84
2022/02/10 18:01:24;;;;;;;4.67;2.20;;;8.60;99.90;;;;;;1893612;75;21079;-88
2022/02/10 18:03:51;;;;;;;2.33;2.10;;;8.50;99.90;;;;;;1905869;73;21212;-86
2022/02/10 18:06:29;;;;;;;6.62;2.85;;;8.50;99.90;;;;;;1859826;76;21053;-85
2022/02/10 18:14:43;;;;;;;3.77;2.20;;;8.50;99.90;;;;;;1883940;75;21110;-87
2022/02/10 18:17:16;;;;;;;5.60;2.42;;;8.50;99.90;;;;;;1879564;75;21648;-87
2022/02/10 18:19:50;;;;;;;2.25;2.05;;;8.50;99.90;;;;;;1846965;76;21183;-83
2022/02/10 18:22:42;;;;;;;2.58;2.12;;;8.50;99.90;;;;;;1862409;76;21509;-81
2022/02/10 18:25:25;;;;;;;2.42;1.92;;;8.40;99.90;;;;;;1855991;76;21100;-82
2022/02/10 18:28:07;;;;;;;5.00;2.05;;;8.40;99.90;;;;;;1868591;76;21049;-84
2022/02/10 18:30:39;;;;;;;5.47;1.90;;;8.30;99.90;;;;;;1846510;76;21491;-81
2022/02/10 19:08:44;;;;;;;3.22;2.00;;;8.10;99.90;;;;;;1863838;76;21179;-84
2022/02/10 19:10:58;;;;;;;4.05;2.55;;;8.10;99.90;;;;;;1862035;75;21096;-84
2022/02/10 19:13:24;;;;;;;3.47;1.95;;;8.20;99.90;;;;;;1851885;76;21334;-75
2022/02/10 19:15:57;;;;;;;3.80;2.52;;;8.10;99.90;;;;;;1855375;76;21497;-76
2022/02/10 19:18:23;;;;;;;4.55;2.87;;;8.10;99.90;;;;;;1859663;76;21100;-75
2022/02/10 19:20:50;;;;;;;8.38;3.27;;;8.10;99.90;;;;;;1859715;76;21577;-75
2022/02/10 19:23:17;;;;;;;8.23;3.42;;;8.10;99.90;;;;;;1854388;76;21164;-75
2022/02/10 19:25:46;;;;;;;9.70;3.05;;;8.00;99.90;;;;;;1862838;76;21213;-77
2022/02/10 19:28:13;;;;;;;9.15;3.10;;;8.00;99.90;;;;;;1865688;76;21108;-74
2022/02/10 19:30:41;;;;;;;3.33;2.62;;;8.00;99.90;;;;;;1869846;76;21169;-76
2022/02/10 19:33:12;;;;;;;4.83;2.40;;;8.00;99.90;;;;;;1865136;76;21289;-75
2022/02/10 19:35:51;;;;;;;8.60;2.65;;;8.00;99.90;;;;;;1861973;76;21170;-76
2022/02/10 19:38:08;;;;;;;4.67;2.60;;;8.00;99.90;;;;;;1855290;75;21175;-76
2022/02/10 19:40:38;;;;;;;2.35;2.00;;;8.00;99.90;;;;;;1863413;76;21515;-75
2022/02/10 19:43:05;;;;;;;3.50;2.30;;;7.90;99.90;;;;;;1856294;76;21089;-74
2022/02/10 19:45:33;;;;;;;5.55;2.30;;;7.90;99.90;;;;;;1853310;76;21221;-75
2022/02/10 19:48:00;;;;;;;3.70;2.30;;;7.90;99.90;;;;;;1857989;76;21157;-72
2022/02/10 19:50:28;;;;;;;3.87;2.30;;;7.90;99.90;;;;;;1847214;77;21088;-74
2022/02/10 19:52:59;;;;;;;4.37;2.35;;;7.80;99.90;;;;;;1858403;76;21171;-71
2022/02/10 19:55:25;;;;;;;4.08;2.20;;;8.00;99.90;;;;;;1861047;76;21177;-73
2022/02/10 19:57:56;;;;;;;4.67;2.22;;;8.00;99.90;;;;;;1855011;76;21065;-74
2022/02/10 20:00:27;;;;;;;;;;;7.90;99.90;;;;;;1857802;76;21171;-71
2022/02/10 20:02:51;;;;;;;4.17;2.40;;;7.90;99.90;;;;;;1860387;76;20270;-72
2022/02/10 20:05:25;;;;;;;4.67;2.40;;;7.80;99.90;;;;;;1862351;76;21054;-70
2022/02/10 20:07:51;;;;;;;5.40;2.30;;;7.70;99.90;;;;;;1855440;76;21183;-75
2022/02/10 20:10:17;;;;;;;4.20;2.45;;;7.60;99.90;;;;;;1858464;75;21136;-78
2022/02/10 20:12:45;;;;;;;3.10;2.12;;;7.60;99.90;;;;;;1862465;76;21558;-80
2022/02/10 20:15:13;;;;;;;5.15;2.35;;;7.60;99.90;;;;;;1870437;76;21220;-80
2022/02/10 20:17:41;;;;;;;8.70;2.47;;;7.70;99.90;;;;;;1857768;76;21089;-80
2022/02/10 20:20:09;;;;;;;1.85;1.62;;;7.70;99.90;;;;;;1853663;76;21070;-82
2022/02/10 20:22:39;;;;;;;2.92;2.15;;;7.70;99.90;;;;;;1851064;76;21092;-80
2022/02/10 20:25:11;;;;;;;4.30;2.40;;;7.60;99.90;;;;;;1846098;76;21482;-81
2022/02/10 20:27:38;;;;;;;3.10;2.35;;;7.50;99.90;;;;;;1833829;78;21218;-80
2022/02/10 20:30:06;;;;;;;8.38;2.08;;;7.40;99.90;;;;;;1852620;77;21084;-81
2022/02/10 20:32:34;;;;;;;4.00;2.52;;;7.30;99.90;;;;;;1848728;76;21093;-81
2022/02/10 20:35:04;;;;;;;3.92;2.58;;;7.30;99.90;;;;;;1857622;76;21166;-80
2022/02/10 20:37:31;;;;;;;;;;;7.30;99.90;;;;;;1875541;76;21062;-86
2022/02/10 20:39:59;;;;;;;6.40;2.70;;;7.20;99.90;;;;;;1865989;76;20362;-80
2022/02/10 20:42:29;;;;;;;5.40;3.08;;;7.10;99.90;;;;;;1845641;77;21106;-82
2022/02/10 20:44:56;;;;;;;7.72;3.17;;;7.10;99.90;;;;;;1874072;75;21135;-76
2022/02/10 20:47:26;;;;;;;7.03;4.05;;;7.10;99.90;;;;;;1861955;76;21438;-80
2022/02/10 20:49:53;;;;;;;8.85;4.42;;;7.10;99.90;;;;;;1850663;77;21095;-81
2022/02/10 20:52:20;;;;;;;5.37;3.72;;;7.10;99.90;;;;;;1847221;77;21059;-79
2022/02/10 20:54:49;;;;;;;5.90;3.65;;;6.90;99.90;;;;;;1858427;76;21099;-81
2022/02/10 20:57:17;;;;;;;13.93;3.65;;;7.00;99.90;;;;;;1861757;76;21045;-76
2022/02/10 20:59:46;;;;;;;5.75;3.67;;;7.10;99.90;;;;;;1859855;76;21088;-77
2022/02/10 21:02:19;;;;;;;5.33;3.92;;;7.00;99.90;;;;;;1848323;76;21065;-77
2022/02/10 21:05:07;;;;;;;5.30;3.20;;;7.10;99.90;;;;;;1855457;75;21173;-79
2022/02/10 21:07:37;;;;;;;8.25;3.70;;;7.10;99.90;;;;;;1848913;76;21135;-79
2022/02/10 21:10:11;;;;;;;8.65;3.92;;;7.10;99.90;;;;;;1859396;76;21485;-79
2022/02/10 21:12:38;;;;;;;6.97;3.62;;;7.10;99.90;;;;;;1854576;75;21110;-82
2022/02/10 21:15:06;;;;;;;11.35;6.95;;;7.00;99.90;;;;;;1865551;75;21143;-81
2022/02/10 21:17:33;;;;;;;13.18;6.97;;;7.00;99.90;;;;;;1847906;75;21171;-76
2022/02/10 21:20:05;;;;;;;10.10;5.97;;;7.00;99.90;;;;;;1857242;76;21162;-77
2022/02/10 21:22:36;;;;;;;10.93;6.22;;;6.90;99.90;;;;;;1839204;76;21554;-84
2022/02/10 21:25:12;;;;;;;6.67;5.30;;;6.90;99.90;;;;;;1843840;76;21118;-79
2022/02/10 21:27:42;;;;;;;15.55;4.70;;;7.00;99.90;;;;;;1853731;76;21151;-78
2022/02/10 21:30:06;;;;;;;5.75;4.45;;;7.10;99.90;;;;;;1862828;75;21469;-80
2022/02/10 21:32:39;;;;;;;8.53;4.22;;;7.10;99.90;;;;;;1852279;75;21518;-79
2022/02/10 21:37:57;;;;;;;6.15;4.10;;;7.10;99.90;;;;;;1866980;76;21166;-79
2022/02/10 21:54:33;;;;;;;15.38;5.60;;;7.00;99.90;;;;;;1805866;78;21640;-77
2022/02/10 21:59:32;;;;;;;7.17;4.95;;;7.00;99.90;;;;;;1785430;80;21079;-74
2022/02/10 22:02:56;;;;;;;6.60;4.78;;;7.00;99.90;;;;;;1825157;78;21168;-74
2022/02/10 22:07:45;;;;;;;14.40;4.40;;;7.00;99.90;;;;;;1856603;76;21534;-74
2022/02/10 22:09:50;;;;;;;7.28;4.72;;;7.00;99.90;;;;;;1844131;77;21493;-74
2022/02/10 22:16:20;;;;;;;6.60;4.90;;;7.00;99.90;;;;;;1855323;76;21201;-73
2022/02/10 22:20:08;;;;;;;11.25;6.28;;;7.10;99.90;;;;;;1849913;76;21202;-74
2022/02/10 22:22:36;;;;;;;10.58;5.83;;;7.00;99.90;;;;;;1851187;76;21071;-76
2022/02/10 22:24:58;;;;;;;9.35;5.70;;;7.10;99.90;;;;;;1853763;75;21504;-75
2022/02/10 22:27:29;;;;;;;9.63;6.15;;;7.00;99.90;;;;;;1867031;76;21096;-73
2022/02/10 22:30:03;;;;;;;12.85;6.92;;;7.00;99.90;;;;;;1863213;76;21050;-76
2022/02/10 22:32:42;;;;;;;13.20;5.95;;;7.00;99.90;;;;;;1860918;75;21579;-74
2022/02/10 22:34:55;;;;;;;11.45;5.97;;;6.80;99.90;;;;;;1858246;76;21099;-75
2022/02/10 22:37:25;;;;;;;8.33;5.42;;;6.90;99.90;;;;;;1866887;76;21095;-75
2022/02/10 22:39:55;;;;;;;7.90;5.28;;;7.00;99.90;;;;;;1852255;76;21054;-76
2022/02/10 22:42:25;;;;;;;7.60;5.53;;;6.90;99.90;;;;;;1846383;77;21152;-75
2022/02/10 22:44:51;;;;;;;8.58;5.22;;;6.80;99.90;;;;;;1854930;76;21127;-73
2022/02/10 22:47:18;;;;;;;10.68;5.45;;;6.80;99.90;;;;;;1855210;76;21226;-72
2022/02/10 22:49:46;;;;;;;7.40;5.30;;;6.80;99.90;;;;;;1849822;77;21058;-74
2022/02/10 22:52:13;;;;;;;7.10;5.28;;;6.90;99.90;;;;;;1860094;76;21252;-74
2022/02/10 22:54:40;;;;;;;10.35;4.75;;;7.00;99.90;;;;;;1866383;76;21155;-74
2022/02/10 22:57:08;;;;;;;5.67;4.42;;;7.00;99.90;;;;;;1852939;76;21611;-75
2022/02/10 22:59:35;;;;;;;8.10;4.35;;;7.00;99.90;;;;;;1861273;76;21057;-75
2022/02/10 23:02:02;;;;;;;6.28;4.60;;;7.00;99.90;;;;;;1857934;76;21054;-76
2022/02/10 23:04:30;;;;;;;6.58;4.65;;;7.00;99.90;;;;;;1833307;77;21060;-74
2022/02/10 23:07:01;;;;;;;10.28;5.28;;;6.90;99.90;;;;;;1856720;77;21081;-75
2022/02/10 23:10:31;;;;;;;8.30;5.25;;;7.00;99.90;;;;;;1856213;75;21095;-74
2022/02/10 23:12:01;;;;;;;8.58;5.20;;;6.90;99.90;;;;;;1851312;76;21092;-75
2022/02/10 23:14:28;;;;;;;11.57;5.22;;;6.90;99.90;;;;;;1853332;76;21133;-74
2022/02/10 23:16:56;;;;;;;9.20;4.87;;;6.90;99.90;;;;;;1859575;76;21096;-74
2022/02/10 23:19:24;;;;;;;12.30;5.55;;;6.80;99.90;;;;;;1846549;76;21081;-75
2022/02/10 23:21:51;;;;;;;12.63;5.12;;;6.90;99.90;;;;;;1851534;76;21085;-76
2022/02/10 23:24:18;;;;;;;12.82;5.30;;;6.80;99.90;;;;;;1856808;75;21092;-74
2022/02/10 23:26:46;;;;;;;12.73;5.05;;;6.90;99.90;;;;;;1862988;76;21081;-76
2022/02/10 23:29:13;;;;;;;9.05;5.08;;;6.90;99.90;;;;;;1848325;76;21606;-74
2022/02/10 23:31:42;;;;;;;7.00;4.90;;;7.00;99.90;;;;;;1866749;76;21053;-74
2022/02/10 23:34:09;;;;;;;8.18;4.90;;;7.00;99.90;;;;;;1853618;76;21158;-75
2022/02/10 23:36:50;;;;;;;14.80;5.15;;;7.00;99.90;;;;;;1862438;76;21162;-75
2022/02/10 23:39:24;;;;;;;8.57;4.53;;;7.00;99.90;;;;;;1857658;75;21500;-74
2022/02/10 23:41:58;;;;;;;6.67;4.80;;;6.90;99.90;;;;;;1868085;75;21070;-77
2022/02/10 23:44:26;;;;;;;7.05;3.92;;;6.90;99.90;;;;;;1856407;75;21096;-75
2022/02/10 23:46:47;;;;;;;6.00;4.28;;;6.80;99.90;;;;;;1852051;75;21131;-75
2022/02/10 23:49:20;;;;;;;5.40;4.35;;;6.80;99.90;;;;;;1836830;76;21186;-74
2022/02/10 23:51:56;;;;;;;7.03;4.28;;;6.80;99.90;;;;;;1847071;75;21117;-77
2022/02/10 23:54:24;;;;;;;7.12;4.70;;;6.80;99.90;;;;;;1857863;76;21170;-76
2022/02/10 23:56:58;;;;;;;9.83;4.45;;;6.90;99.90;;;;;;1866043;75;21103;-77
2022/02/10 23:59:50;;;;;;;4.50;3.90;;;6.90;99.90;;;;;;1850943;76;21081;-76
